Timeline UpdatesTrip UpdatesNews PostsPvt PostsTravel TipsAdmin PostsConv PostsFollowed PostsChat RequestsBlog PostsPNR Posts

Disclaimer
Search
 
 
Mon Sep 1, 2014 13:01:37 ISTHomeTrainsΣChainsAtlasPNRForumGalleryNewsFAQTripsMembersLoginFeedback
No Recent News for this Train
Other Trains in the News **new
Latest...
..
Tue Sep 03, 2013 (03:50PM)
⇐ Return Journey: Train# 11040

11039/Maharashtra Express

Time-Table HAS CHANGED.
Today (1:11AM)
Change Departure Station:
Change Arrival Station:
Post a Train Travel TipPost a Train Travel Tip **new
Post a Comment/Question/Picture/VideoPost a Comment/Question/Picture/Video
Pantry/Catering
✕ NO Pantry Car
✓ Catering Avbl
Loco/Rake Reversals
PUNE/Pune Junction (6); DD/Daund Junction (7);
RSA - Rake Sharing
11023/11024 Sahyadri Express
Rake/Coach Composition
[LOCO] [S10 (From Daund Jn To Gondia)] [SLR] [UR] [A1] [B1] [S1] [S2] [S3] [S4] [S5] [S6] [S7] [S8] [UR] [SLR] [S9 (Kolhapur To Bhusaval)]
Loco
KOP-BSL: PUNE/GY/GTL WDM-3D BSL-G: BSL WAP-4
News    PNR    Forum    Time-Table    Availability    Fare Chart    Map    Arr/Dep History    Trips    Gallery    ΣChains    X/O    Timeline    
Travel Time: 7h 35m    23 halts    Distance: 327 km    Avg Speed: 43 km/hr
Type: Mail/Express
Zone: CR/Central
Departs @ 15:30 (Avg on time)
Platform# 2
SMTWTFS
Kolhapur CSMT/KOP 
Arrives @ 23:05 (Avg on time)
Platform# 2
SMTWTFS
Pune Junction/PUNE 

23 halts. 42 intermediate Stations between Kolhapur CSMT and Pune Junction

Show ALL intermediate Stations  Show Old Time-Table

#CodeStation NameX/OArrivesAvgDepartsAvgHaltPFDay#KmSpeedElevZoneAddress
1KOP»Kolhapur CSMT (3)»  -15:30+0210.056563mCRKolhapur 416001, Maharashtra
2VVValivade  15:38 15:37-15:39-1 2m116.650554mCRValivade, Maharashtra
3RKDRukadi (1)X  15:48 15:47+215:49+31 2m2113.250544mCRKolhapur, Maharashtra
4HTKHatkanagale (2)  15:59 15:58+216:00+51 2m1120.767591mCRDist. Kolhapur 416115, Maharashtra
5JSPJayasingpur  16:14 16:13+616:15+71 2m1135.236550mCRJaysingpur, Maharashtra
6MRJMiraj Junction (6)X  16:35+316:40+75m1147.137554mCRMiraj 416410, Maharashtra
7SLISangli (3)  16:52+1016:55+103m1154.457559mCRSangli, Maharashtra
8BVQBhilavdi  17:16 17:15+717:17+91 2m1173.555570mCRSangli, Maharashtra
9KOVKirloskarvadi  17:33 17:32+617:34+81 2m1187.351570mCRSangli, Maharashtra
10TKRTakariX  17:44 17:43+817:45+101 2m1194.992558mCRSangli, Maharashtra
11BVNRBhavani Nagar  17:50 17:49+1317:51+151 2m11101.175578mCRTasgaon Rd, Maharashtra
12KRDKarad (3)  18:07 18:08+2018:10+203 2m11122.355597mCRDist- Satara., Maharashtra
13MSRMasur  18:26 18:25+2118:27+211 2m11136.170610mCRSatara, Maharashtra
14TAZTargaonX  18:39 18:38+2218:40+231 2m11148.966617mCRSatara, Maharashtra
15RMPRahimatpur  18:51 18:50+2418:52+241 2m11160.056626mCRSatara, Maharashtra
16KRGKoregaonX  19:04 19:03+2519:05+261 2m11170.332658mCRKoregaon, Maharashtra
17STRSatara (3)  19:25+1919:28+203m21181.046637mCRSatara, Maharashtra
18JSVJarandeshwar  19:39 19:38+2019:40+221 2m11188.661678mCRSH 61, Maharashtra
19WTRWatharX  19:59 19:58+2420:00+251 2m11207.051799mCRSatara, Maharashtra
20LNNLonand  20:33 20:32+2520:34+261 2m11234.351594mCRJn Point Daund /Miraj /Pune, Maharashtra
21NIRANira (1)  20:43+2720:45+272m11242.057553mCRDist. Pune 412102, Maharashtra
22JJRJejuri (1)  21:14 21:13+3021:15+311 2m11268.578697mCRDist. Pune 412303, Maharashtra
23ABLEAmbale  21:29 21:28+3421:30+341 2m11285.444729mCRMalshiras Rd, Maharashtra
24GPRGhorpuri (2)  22:24 22:23+1922:25+201 2m11324.43558mCRPune, Maharashtra
25PUNE•Pune Junction (6)•X23:05+023:20+815m21326.762556mCRPune 411001, Maharashtra
26URIUruli (2)  23:49 23:48+1523:50+151 2m21355.566553mCRDist. Pune 412202, Maharashtra
27KDGKedgaon (2)X  00:14 00:13+1200:15+131 2m22380.732544mCRDist. Pune 412203, Maharashtra
28DDDaund Junction (7)XO00:55+301:10+1615m32402.358521mCRNew Daund Dist. Pune 413801, Maharashtra
29ANGAhmadnagar (2)  02:37+1202:40+143m12486.559650mCRAhmednagar 414001, Maharashtra
30BAPBelapur (2)  03:48+1803:50+192m12553.568541mCRShrirampur, Maharashtra
31PBPuntamba Junction (2)X  04:08+2304:10+262m12573.869501mCRPuntamba, Maharashtra
32KPGKopargaon (2)X  04:31+3204:33+342m12598.127508mCRKopargaon 423601, Maharashtra
33YLYeola (2)X  05:03+2105:05+252m12611.826553mCRYeola, Maharashtra
34MMRManmad Junction (6)X  06:10+1006:15+155m52640.485580mCRManmad 423104, Maharashtra
35NGNNandgaon (3)X  06:33+2206:35+222m22665.790476mCRNandgaon, Maharashtra
36CSNChalisgaon Junction (3)X  07:03+2407:05+242m22707.996352mCRChalisgaon 424101, Maharashtra
37PCPachora Junction (4)  07:33+2807:35+282m22752.775264mCRPachora 424201, Maharashtra
38JLJalgaon Junction (4)  08:13+2708:15+292m12800.458213mCRJalgaon 425001, Maharashtra
39BSLBhusaval Junction (8)08:40+2809:00+2720m42824.657208mCRBhusaval 425201, Maharashtra
40BDWDBodwad  09:32+3609:34+352m22854.884294mCRBodwad, Maharashtra
41MKUMalkapur (2)  09:48+3709:50+372m12874.584252mCRMalkapur, Maharashtra
42NNNandura  10:10+3910:12+392m12902.467267mCRNandura, Maharashtra
43JMJalamb Junction (3)  10:23+3910:25+392m--2914.657259mCRJalamb, Maharashtra
44SEGShegaon (2)  10:38+3710:40+372m22927.064281mCRShegaon 444203, Maharashtra
45AKAkola Junction (7)X  11:15+2911:20+295m22964.180284mCRAkola-444001, Maharashtra
46MZRMurtizapur (3)X  11:48+3311:50+332m221001.336303mCRMurtajapur, Maharashtra
47BDBadnera Junction (4)X  13:00+313:05+55m121043.149335mCRBadnera (Amravati) 444701, Maharashtra
48CNDChandur (2)  13:40+413:42+62m--21071.977331mCRAmravati Distt, Maharashtra
49DMNDhamangaon (2)  13:55+713:57+72m--21088.680300mCRDhamangaon, Maharashtra
50PLOPulgaon Junction (3)  14:12+814:14+82m121108.547273mCRPulgaon, Maharashtra
51WRWardha Junction (4)X  14:52+114:55+23m--21138.132289mCRWardha 442001, Maharashtra
52SEGMSewagram Junction (5)  15:00+515:02+82m--21140.871279mCRWardha, Maharashtra
53TGPTuljapur (2)XO  15:21 15:20+1915:22+241 2m--21162.195259mCRTuljapur, Maharashtra
54SNISindi (2)XO  15:27+2615:29+292m--21170.177258mCRWardha, Maharashtra
55AJNIAjni (3)XO  16:03+3016:05+352m121213.92310mCRNagpur 440003, Maharashtra
56NGPNagpur Junction (8)X  17:20+217:40+220m421217.025314mCRNagpur 440001, Maharashtra
57ITRItwari (3)  17:49+1317:51+132m--21220.730306mSECRNagpur, Maharashtra
58KPKamptee (3)X  18:12+1218:14+132m--21231.296290mSECRMH 441001, Maharashtra
59BRDBhandara Road (2)X  18:44+818:46+92m121279.277266mSECRState Highway 252, Maharashtra
60TMRTumsar Road (3)X  19:00+2119:02+212m121297.181267mSECRBhandara, Maharashtra
61TROTirora (3)  19:17+1319:19+142m121317.531282mSECRDist Gondiya, Maharashtra
62GGondia Junction (7)  20:15+2-521346.8-316mSECRGondia 441601, Maharashtra
Scroll to Top
Scroll to Bottom